Overview Statistics Trail Chart Weather Telemetry Raw packets
 

This is the latest recevied weather packets stored in our database for station/object VK6WB. If no packets are shown the sender has not sent any weather packets the latest 10 day(s).

<< 26 27 28 29 30 31 32 >>
Time Temp. Humidity Pressure Rain* Wind** Luminosity Snow
1777188605 26.67° C 24% 1011.5 hPa 0 mm - 9 W/m² -
1777188004 26.67° C 25% 1011.5 hPa 0 mm - 9 W/m² -
1777187405 26.11° C 28% 1011.5 hPa 0 mm - 9 W/m² -
1777186804 26.11° C 28% 1011.6 hPa 0 mm - 9 W/m² -
1777186204 26.11° C 27% 1011.7 hPa 0 mm - 9 W/m² -
1777185605 25.56° C 29% 1011.6 hPa 0 mm - 9 W/m² -
1777185004 25.56° C 28% 1011.7 hPa 0 mm - 9 W/m² -
1777184404 26.11° C 26% 1011.8 hPa 0 mm - 9 W/m² -
1777183805 26.11° C 29% 1011.9 hPa 0 mm - 9 W/m² -
1777183204 25.56° C 27% 1011.9 hPa 0 mm - 9 W/m² -
1777182604 25.56° C 27% 1012 hPa 0 mm - 9 W/m² -
1777182005 25.56° C 27% 1012 hPa 0 mm - 9 W/m² -
1777181404 25.56° C 27% 1012.1 hPa 0 mm - 9 W/m² -
1777180804 26.11° C 26% 1012.4 hPa 0 mm - 9 W/m² -
1777180205 26.11° C 26% 1012.6 hPa 0 mm - 9 W/m² -
1777179604 25.56° C 27% 1012.8 hPa 0 mm - 9 W/m² -
1777179004 25.56° C 27% 1012.9 hPa 0 mm - 9 W/m² -
1777178405 25° C 27% 1013.1 hPa 0 mm - 165 W/m² -
1777177804 25° C 27% 1013.2 hPa 0 mm - 371 W/m² -
1777177204 25° C 22% 1013.6 hPa 0 mm - 630 W/m² -
1777176605 25° C 22% 1013.8 hPa 0 mm - 579 W/m² -
1777176004 25° C 22% 1013.9 hPa 0 mm - 269 W/m² -
1777175404 24.44° C 23% 1014.2 hPa 0 mm - 165 W/m² -
1777174804 23.89° C 23% 1014.3 hPa 0 mm - 165 W/m² -
1777174204 23.33° C 19% 1014.7 hPa 0 mm - 165 W/m² -

* Rain latest hour (hover to see other rain measurements)
** Current wind speed in m/s (hover to see current wind gust speed)